sensor_id;sensor_type;location;lat;lon;timestamp;temperature;humidity
31765;DHT22;18338;53.240;8.798;2023-10-08T00:00:06;11.70;99.90
31765;DHT22;18338;53.240;8.798;2023-10-08T00:02:51;11.60;99.90
31765;DHT22;18338;53.240;8.798;2023-10-08T00:05:19;11.70;99.90
31765;DHT22;18338;53.240;8.798;2023-10-08T00:07:48;11.70;99.90
31765;DHT22;18338;53.240;8.798;2023-10-08T00:10:17;11.70;99.90
31765;DHT22;18338;53.240;8.798;2023-10-08T00:12:45;11.70;99.90
31765;DHT22;18338;53.240;8.798;2023-10-08T00:15:14;11.70;99.90
31765;DHT22;18338;53.240;8.798;2023-10-08T00:17:41;11.70;99.90
31765;DHT22;18338;53.240;8.798;2023-10-08T00:20:08;11.70;99.90
31765;DHT22;18338;53.240;8.798;2023-10-08T00:22:35;11.70;99.90
31765;DHT22;18338;53.240;8.798;2023-10-08T00:25:03;11.70;99.90
31765;DHT22;18338;53.240;8.798;2023-10-08T00:27:38;11.70;99.90
31765;DHT22;18338;53.240;8.798;2023-10-08T00:30:06;11.70;99.90
31765;DHT22;18338;53.240;8.798;2023-10-08T00:32:44;11.70;99.90
31765;DHT22;18338;53.240;8.798;2023-10-08T00:35:12;11.70;99.90
31765;DHT22;18338;53.240;8.798;2023-10-08T00:37:40;11.70;99.90
31765;DHT22;18338;53.240;8.798;2023-10-08T00:40:08;11.80;99.90
31765;DHT22;18338;53.240;8.798;2023-10-08T00:42:39;11.70;99.90
31765;DHT22;18338;53.240;8.798;2023-10-08T00:45:12;11.70;99.90
31765;DHT22;18338;53.240;8.798;2023-10-08T00:47:41;11.70;99.90
31765;DHT22;18338;53.240;8.798;2023-10-08T00:50:12;11.80;99.90
31765;DHT22;18338;53.240;8.798;2023-10-08T00:52:50;11.80;99.90
31765;DHT22;18338;53.240;8.798;2023-10-08T00:55:36;11.80;99.90
31765;DHT22;18338;53.240;8.798;2023-10-08T00:58:05;11.80;99.90
31765;DHT22;18338;53.240;8.798;2023-10-08T01:00:39;11.80;99.90
31765;DHT22;18338;53.240;8.798;2023-10-08T01:03:08;11.80;99.90
31765;DHT22;18338;53.240;8.798;2023-10-08T01:05:42;11.80;99.90
31765;DHT22;18338;53.240;8.798;2023-10-08T01:08:15;11.80;99.90
31765;DHT22;18338;53.240;8.798;2023-10-08T01:10:59;11.80;99.90
31765;DHT22;18338;53.240;8.798;2023-10-08T01:13:30;11.80;99.90
31765;DHT22;18338;53.240;8.798;2023-10-08T01:16:03;11.80;99.90
31765;DHT22;18338;53.240;8.798;2023-10-08T01:18:30;11.80;99.90
31765;DHT22;18338;53.240;8.798;2023-10-08T01:20:59;11.80;99.90
31765;DHT22;18338;53.240;8.798;2023-10-08T01:23:34;11.80;99.90
31765;DHT22;18338;53.240;8.798;2023-10-08T01:26:01;11.80;99.90
31765;DHT22;18338;53.240;8.798;2023-10-08T01:28:38;11.80;99.90
31765;DHT22;18338;53.240;8.798;2023-10-08T01:31:05;11.80;99.90
31765;DHT22;18338;53.240;8.798;2023-10-08T01:33:33;11.80;99.90
31765;DHT22;18338;53.240;8.798;2023-10-08T01:36:13;11.80;99.90
31765;DHT22;18338;53.240;8.798;2023-10-08T01:38:40;11.80;99.90
31765;DHT22;18338;53.240;8.798;2023-10-08T01:41:09;11.70;99.90
31765;DHT22;18338;53.240;8.798;2023-10-08T01:43:46;11.70;99.90
31765;DHT22;18338;53.240;8.798;2023-10-08T01:46:13;11.70;99.90
31765;DHT22;18338;53.240;8.798;2023-10-08T01:48:42;11.70;99.90
31765;DHT22;18338;53.240;8.798;2023-10-08T01:51:11;11.70;99.90
31765;DHT22;18338;53.240;8.798;2023-10-08T01:53:46;11.70;99.90
31765;DHT22;18338;53.240;8.798;2023-10-08T01:56:14;11.80;99.90
31765;DHT22;18338;53.240;8.798;2023-10-08T01:58:41;11.80;99.90
31765;DHT22;18338;53.240;8.798;2023-10-08T02:01:08;11.80;99.90
31765;DHT22;18338;53.240;8.798;2023-10-08T02:03:39;11.80;99.90
31765;DHT22;18338;53.240;8.798;2023-10-08T02:06:06;11.80;99.90
31765;DHT22;18338;53.240;8.798;2023-10-08T02:08:35;11.80;99.90
31765;DHT22;18338;53.240;8.798;2023-10-08T02:11:03;11.80;99.90
31765;DHT22;18338;53.240;8.798;2023-10-08T02:13:30;11.80;99.90
31765;DHT22;18338;53.240;8.798;2023-10-08T02:15:57;11.80;99.90
31765;DHT22;18338;53.240;8.798;2023-10-08T02:18:24;11.90;99.90
31765;DHT22;18338;53.240;8.798;2023-10-08T02:20:52;11.90;99.90
31765;DHT22;18338;53.240;8.798;2023-10-08T02:23:19;11.90;99.90
31765;DHT22;18338;53.240;8.798;2023-10-08T02:25:46;11.90;99.90
31765;DHT22;18338;53.240;8.798;2023-10-08T02:28:14;11.90;99.90
31765;DHT22;18338;53.240;8.798;2023-10-08T02:30:43;11.90;99.90
31765;DHT22;18338;53.240;8.798;2023-10-08T02:33:10;11.90;99.90
31765;DHT22;18338;53.240;8.798;2023-10-08T02:35:44;11.90;99.90
31765;DHT22;18338;53.240;8.798;2023-10-08T02:38:14;11.90;99.90
31765;DHT22;18338;53.240;8.798;2023-10-08T02:40:45;11.90;99.90
31765;DHT22;18338;53.240;8.798;2023-10-08T02:43:15;11.90;99.90
31765;DHT22;18338;53.240;8.798;2023-10-08T02:45:44;11.90;99.90
31765;DHT22;18338;53.240;8.798;2023-10-08T02:48:16;11.90;99.90
31765;DHT22;18338;53.240;8.798;2023-10-08T02:50:45;11.90;99.90
31765;DHT22;18338;53.240;8.798;2023-10-08T02:53:12;11.90;99.90
31765;DHT22;18338;53.240;8.798;2023-10-08T02:55:41;11.90;99.90
31765;DHT22;18338;53.240;8.798;2023-10-08T02:58:11;11.90;99.90
31765;DHT22;18338;53.240;8.798;2023-10-08T03:00:47;11.90;99.90
31765;DHT22;18338;53.240;8.798;2023-10-08T03:03:18;11.90;99.90
31765;DHT22;18338;53.240;8.798;2023-10-08T03:05:47;11.90;99.90
31765;DHT22;18338;53.240;8.798;2023-10-08T03:08:15;11.90;99.90
31765;DHT22;18338;53.240;8.798;2023-10-08T03:10:47;11.90;99.90
31765;DHT22;18338;53.240;8.798;2023-10-08T03:13:22;11.90;99.90
31765;DHT22;18338;53.240;8.798;2023-10-08T03:15:49;12.00;99.90
31765;DHT22;18338;53.240;8.798;2023-10-08T03:18:29;11.90;99.90
31765;DHT22;18338;53.240;8.798;2023-10-08T03:21:04;12.00;99.90
31765;DHT22;18338;53.240;8.798;2023-10-08T03:23:32;11.90;99.90
31765;DHT22;18338;53.240;8.798;2023-10-08T03:26:04;11.90;99.90
31765;DHT22;18338;53.240;8.798;2023-10-08T03:28:55;11.90;99.90
31765;DHT22;18338;53.240;8.798;2023-10-08T03:31:24;11.90;99.90
31765;DHT22;18338;53.240;8.798;2023-10-08T03:34:13;11.90;99.90
31765;DHT22;18338;53.240;8.798;2023-10-08T03:36:42;11.90;99.90
31765;DHT22;18338;53.240;8.798;2023-10-08T03:39:17;11.90;99.90
31765;DHT22;18338;53.240;8.798;2023-10-08T03:41:47;11.90;99.90
31765;DHT22;18338;53.240;8.798;2023-10-08T03:44:33;11.90;99.90
31765;DHT22;18338;53.240;8.798;2023-10-08T03:47:04;11.90;99.90
31765;DHT22;18338;53.240;8.798;2023-10-08T03:49:38;11.90;99.90
31765;DHT22;18338;53.240;8.798;2023-10-08T03:52:12;11.90;99.90
31765;DHT22;18338;53.240;8.798;2023-10-08T03:54:42;11.90;99.90
31765;DHT22;18338;53.240;8.798;2023-10-08T03:57:15;11.90;99.90
31765;DHT22;18338;53.240;8.798;2023-10-08T03:59:52;11.90;99.90
31765;DHT22;18338;53.240;8.798;2023-10-08T04:02:25;11.90;99.90
31765;DHT22;18338;53.240;8.798;2023-10-08T04:05:06;11.90;99.90
31765;DHT22;18338;53.240;8.798;2023-10-08T04:07:46;12.00;99.90
31765;DHT22;18338;53.240;8.798;2023-10-08T04:10:27;12.00;99.90
31765;DHT22;18338;53.240;8.798;2023-10-08T04:13:26;11.90;99.90
31765;DHT22;18338;53.240;8.798;2023-10-08T04:15:52;12.00;99.90
31765;DHT22;18338;53.240;8.798;2023-10-08T04:18:20;12.00;99.90
31765;DHT22;18338;53.240;8.798;2023-10-08T04:20:47;11.90;99.90
31765;DHT22;18338;53.240;8.798;2023-10-08T04:23:40;12.00;99.90
31765;DHT22;18338;53.240;8.798;2023-10-08T04:26:11;11.90;99.90
31765;DHT22;18338;53.240;8.798;2023-10-08T04:28:39;12.00;99.90
31765;DHT22;18338;53.240;8.798;2023-10-08T04:31:07;11.90;99.90
31765;DHT22;18338;53.240;8.798;2023-10-08T04:33:44;12.00;99.90
31765;DHT22;18338;53.240;8.798;2023-10-08T04:36:12;11.90;99.90
31765;DHT22;18338;53.240;8.798;2023-10-08T04:38:44;12.00;99.90
31765;DHT22;18338;53.240;8.798;2023-10-08T04:41:15;12.00;99.90
31765;DHT22;18338;53.240;8.798;2023-10-08T04:43:46;11.90;99.90
31765;DHT22;18338;53.240;8.798;2023-10-08T04:46:15;11.90;99.90
31765;DHT22;18338;53.240;8.798;2023-10-08T04:49:00;11.90;99.90
31765;DHT22;18338;53.240;8.798;2023-10-08T04:51:31;11.90;99.90
31765;DHT22;18338;53.240;8.798;2023-10-08T04:54:11;11.90;99.90
31765;DHT22;18338;53.240;8.798;2023-10-08T04:56:44;11.90;99.90
31765;DHT22;18338;53.240;8.798;2023-10-08T04:59:11;11.90;99.90
31765;DHT22;18338;53.240;8.798;2023-10-08T05:01:39;11.90;99.90
31765;DHT22;18338;53.240;8.798;2023-10-08T05:04:15;11.90;99.90
31765;DHT22;18338;53.240;8.798;2023-10-08T05:06:57;11.90;99.90
31765;DHT22;18338;53.240;8.798;2023-10-08T05:09:46;11.90;99.90
31765;DHT22;18338;53.240;8.798;2023-10-08T05:12:38;11.80;99.90
31765;DHT22;18338;53.240;8.798;2023-10-08T05:15:13;11.80;99.90
31765;DHT22;18338;53.240;8.798;2023-10-08T05:17:47;11.80;99.90
31765;DHT22;18338;53.240;8.798;2023-10-08T05:20:21;11.80;99.90
31765;DHT22;18338;53.240;8.798;2023-10-08T05:23:10;11.80;99.90
31765;DHT22;18338;53.240;8.798;2023-10-08T05:25:57;11.80;99.90
31765;DHT22;18338;53.240;8.798;2023-10-08T05:28:37;11.70;99.90
31765;DHT22;18338;53.240;8.798;2023-10-08T05:31:28;11.70;99.90
31765;DHT22;18338;53.240;8.798;2023-10-08T05:34:19;11.70;99.90
31765;DHT22;18338;53.240;8.798;2023-10-08T05:36:59;11.70;99.90
31765;DHT22;18338;53.240;8.798;2023-10-08T05:39:27;11.70;99.90
31765;DHT22;18338;53.240;8.798;2023-10-08T05:42:07;11.60;99.90
31765;DHT22;18338;53.240;8.798;2023-10-08T05:44:42;11.70;99.90
31765;DHT22;18338;53.240;8.798;2023-10-08T05:47:28;11.70;99.90
31765;DHT22;18338;53.240;8.798;2023-10-08T05:50:02;11.60;99.90
31765;DHT22;18338;53.240;8.798;2023-10-08T05:52:45;11.60;99.90
31765;DHT22;18338;53.240;8.798;2023-10-08T05:55:25;11.70;99.90
31765;DHT22;18338;53.240;8.798;2023-10-08T05:57:59;11.70;99.90
31765;DHT22;18338;53.240;8.798;2023-10-08T06:00:47;11.70;99.90
31765;DHT22;18338;53.240;8.798;2023-10-08T06:03:17;11.70;99.90
31765;DHT22;18338;53.240;8.798;2023-10-08T06:06:06;11.70;99.90
31765;DHT22;18338;53.240;8.798;2023-10-08T06:08:39;11.80;99.90
31765;DHT22;18338;53.240;8.798;2023-10-08T06:11:34;11.80;99.90
31765;DHT22;18338;53.240;8.798;2023-10-08T06:14:22;11.90;99.90
31765;DHT22;18338;53.240;8.798;2023-10-08T06:17:12;11.90;99.90
31765;DHT22;18338;53.240;8.798;2023-10-08T06:20:02;11.90;99.90
31765;DHT22;18338;53.240;8.798;2023-10-08T06:22:36;12.00;99.90
31765;DHT22;18338;53.240;8.798;2023-10-08T06:25:03;12.00;99.90
31765;DHT22;18338;53.240;8.798;2023-10-08T06:27:44;12.10;99.90
31765;DHT22;18338;53.240;8.798;2023-10-08T06:30:12;12.10;99.90
31765;DHT22;18338;53.240;8.798;2023-10-08T06:32:44;12.20;99.90
31765;DHT22;18338;53.240;8.798;2023-10-08T06:35:12;12.20;99.90
31765;DHT22;18338;53.240;8.798;2023-10-08T06:37:45;12.30;99.90
31765;DHT22;18338;53.240;8.798;2023-10-08T06:40:12;12.50;99.90
31765;DHT22;18338;53.240;8.798;2023-10-08T06:42:59;12.50;99.90
31765;DHT22;18338;53.240;8.798;2023-10-08T06:45:30;12.50;99.90
31765;DHT22;18338;53.240;8.798;2023-10-08T06:47:59;12.50;99.90
31765;DHT22;18338;53.240;8.798;2023-10-08T06:50:27;12.60;99.90
31765;DHT22;18338;53.240;8.798;2023-10-08T06:52:56;12.60;99.90
31765;DHT22;18338;53.240;8.798;2023-10-08T06:55:23;12.60;99.90
31765;DHT22;18338;53.240;8.798;2023-10-08T06:57:53;12.60;99.90
31765;DHT22;18338;53.240;8.798;2023-10-08T07:00:21;12.70;99.90
31765;DHT22;18338;53.240;8.798;2023-10-08T07:03:08;12.70;99.90
31765;DHT22;18338;53.240;8.798;2023-10-08T07:05:38;12.90;99.90
31765;DHT22;18338;53.240;8.798;2023-10-08T07:08:08;13.00;99.90
31765;DHT22;18338;53.240;8.798;2023-10-08T07:10:35;13.00;99.90
31765;DHT22;18338;53.240;8.798;2023-10-08T07:13:02;13.00;99.90
31765;DHT22;18338;53.240;8.798;2023-10-08T07:15:32;13.00;99.90
31765;DHT22;18338;53.240;8.798;2023-10-08T07:17:59;13.20;99.90
31765;DHT22;18338;53.240;8.798;2023-10-08T07:20:37;13.40;99.90
31765;DHT22;18338;53.240;8.798;2023-10-08T07:23:09;13.30;99.90
31765;DHT22;18338;53.240;8.798;2023-10-08T07:25:39;13.30;99.90
31765;DHT22;18338;53.240;8.798;2023-10-08T07:28:06;13.30;99.90
31765;DHT22;18338;53.240;8.798;2023-10-08T07:30:37;13.40;99.90
31765;DHT22;18338;53.240;8.798;2023-10-08T07:33:10;13.50;99.90
31765;DHT22;18338;53.240;8.798;2023-10-08T07:35:48;13.70;99.90
31765;DHT22;18338;53.240;8.798;2023-10-08T07:38:19;13.70;99.90
31765;DHT22;18338;53.240;8.798;2023-10-08T07:40:48;13.80;99.90
31765;DHT22;18338;53.240;8.798;2023-10-08T07:43:15;14.10;99.90
31765;DHT22;18338;53.240;8.798;2023-10-08T07:45:41;14.30;99.90
31765;DHT22;18338;53.240;8.798;2023-10-08T07:48:12;14.50;99.90
31765;DHT22;18338;53.240;8.798;2023-10-08T07:50:44;14.70;99.90
31765;DHT22;18338;53.240;8.798;2023-10-08T07:53:13;14.70;99.90
31765;DHT22;18338;53.240;8.798;2023-10-08T07:55:47;14.90;99.90
31765;DHT22;18338;53.240;8.798;2023-10-08T07:58:15;15.10;99.90
31765;DHT22;18338;53.240;8.798;2023-10-08T08:00:43;15.40;99.90
31765;DHT22;18338;53.240;8.798;2023-10-08T08:03:19;15.50;99.90
31765;DHT22;18338;53.240;8.798;2023-10-08T08:05:47;15.50;99.90
31765;DHT22;18338;53.240;8.798;2023-10-08T08:08:15;15.60;99.90
31765;DHT22;18338;53.240;8.798;2023-10-08T08:10:45;15.60;99.90
31765;DHT22;18338;53.240;8.798;2023-10-08T08:13:12;15.60;99.90
31765;DHT22;18338;53.240;8.798;2023-10-08T08:15:47;15.60;99.90
31765;DHT22;18338;53.240;8.798;2023-10-08T08:18:18;15.50;99.90
31765;DHT22;18338;53.240;8.798;2023-10-08T08:20:49;15.40;99.90
31765;DHT22;18338;53.240;8.798;2023-10-08T08:23:16;15.50;99.90
31765;DHT22;18338;53.240;8.798;2023-10-08T08:25:43;15.60;99.90
31765;DHT22;18338;53.240;8.798;2023-10-08T08:28:22;15.70;99.90
31765;DHT22;18338;53.240;8.798;2023-10-08T08:30:51;15.70;99.90
31765;DHT22;18338;53.240;8.798;2023-10-08T08:33:22;15.90;99.90
31765;DHT22;18338;53.240;8.798;2023-10-08T08:36:00;17.00;99.90
31765;DHT22;18338;53.240;8.798;2023-10-08T08:38:32;19.70;99.90
31765;DHT22;18338;53.240;8.798;2023-10-08T08:41:03;22.80;99.90
31765;DHT22;18338;53.240;8.798;2023-10-08T08:43:36;24.30;99.90
31765;DHT22;18338;53.240;8.798;2023-10-08T08:46:04;25.70;99.90
31765;DHT22;18338;53.240;8.798;2023-10-08T08:48:36;26.50;99.90
31765;DHT22;18338;53.240;8.798;2023-10-08T08:51:05;26.90;99.90
31765;DHT22;18338;53.240;8.798;2023-10-08T08:53:34;26.70;99.90
31765;DHT22;18338;53.240;8.798;2023-10-08T08:56:01;27.10;99.90
31765;DHT22;18338;53.240;8.798;2023-10-08T08:58:33;28.40;99.90
31765;DHT22;18338;53.240;8.798;2023-10-08T09:01:00;29.50;99.70
31765;DHT22;18338;53.240;8.798;2023-10-08T09:03:30;29.70;98.60
31765;DHT22;18338;53.240;8.798;2023-10-08T09:06:00;31.20;94.60
31765;DHT22;18338;53.240;8.798;2023-10-08T09:08:35;32.10;92.80
31765;DHT22;18338;53.240;8.798;2023-10-08T09:11:03;32.70;84.80
31765;DHT22;18338;53.240;8.798;2023-10-08T09:13:35;32.90;84.00
31765;DHT22;18338;53.240;8.798;2023-10-08T09:16:13;32.50;82.10
31765;DHT22;18338;53.240;8.798;2023-10-08T09:18:44;32.60;75.80
31765;DHT22;18338;53.240;8.798;2023-10-08T09:21:16;33.10;76.70
31765;DHT22;18338;53.240;8.798;2023-10-08T09:23:50;34.00;71.60
31765;DHT22;18338;53.240;8.798;2023-10-08T09:26:18;33.60;72.30
31765;DHT22;18338;53.240;8.798;2023-10-08T09:28:46;33.40;70.80
31765;DHT22;18338;53.240;8.798;2023-10-08T09:31:13;32.00;71.00
31765;DHT22;18338;53.240;8.798;2023-10-08T09:33:41;32.50;70.90
31765;DHT22;18338;53.240;8.798;2023-10-08T09:36:10;33.10;71.00
31765;DHT22;18338;53.240;8.798;2023-10-08T09:38:45;33.10;67.80
31765;DHT22;18338;53.240;8.798;2023-10-08T09:41:15;34.00;69.80
31765;DHT22;18338;53.240;8.798;2023-10-08T09:43:42;34.60;67.00
31765;DHT22;18338;53.240;8.798;2023-10-08T09:46:21;34.90;66.80
31765;DHT22;18338;53.240;8.798;2023-10-08T09:49:00;36.00;67.70
31765;DHT22;18338;53.240;8.798;2023-10-08T09:51:29;36.10;66.10
31765;DHT22;18338;53.240;8.798;2023-10-08T09:55:11;36.20;62.50
31765;DHT22;18338;53.240;8.798;2023-10-08T09:57:08;36.30;59.40
31765;DHT22;18338;53.240;8.798;2023-10-08T09:59:37;33.60;62.10
31765;DHT22;18338;53.240;8.798;2023-10-08T10:02:08;31.80;66.20
31765;DHT22;18338;53.240;8.798;2023-10-08T10:04:43;30.60;68.00
31765;DHT22;18338;53.240;8.798;2023-10-08T10:07:14;30.40;70.10
31765;DHT22;18338;53.240;8.798;2023-10-08T10:09:44;28.70;70.20
31765;DHT22;18338;53.240;8.798;2023-10-08T10:12:18;27.50;73.90
31765;DHT22;18338;53.240;8.798;2023-10-08T10:14:46;26.80;78.90
31765;DHT22;18338;53.240;8.798;2023-10-08T10:17:17;27.70;78.10
31765;DHT22;18338;53.240;8.798;2023-10-08T10:20:07;28.80;74.90
31765;DHT22;18338;53.240;8.798;2023-10-08T10:22:40;29.60;73.30
31765;DHT22;18338;53.240;8.798;2023-10-08T10:25:10;30.40;73.80
31765;DHT22;18338;53.240;8.798;2023-10-08T10:30:22;29.60;67.00
31765;DHT22;18338;53.240;8.798;2023-10-08T10:32:54;27.80;72.00
31765;DHT22;18338;53.240;8.798;2023-10-08T10:35:22;25.90;78.30
31765;DHT22;18338;53.240;8.798;2023-10-08T10:37:51;24.00;86.10
31765;DHT22;18338;53.240;8.798;2023-10-08T10:40:22;23.20;90.40
31765;DHT22;18338;53.240;8.798;2023-10-08T10:43:08;22.80;93.90
31765;DHT22;18338;53.240;8.798;2023-10-08T10:45:42;23.20;92.10
31765;DHT22;18338;53.240;8.798;2023-10-08T10:48:11;26.10;88.20
31765;DHT22;18338;53.240;8.798;2023-10-08T10:50:49;29.90;77.70
31765;DHT22;18338;53.240;8.798;2023-10-08T10:53:39;32.70;68.80
31765;DHT22;18338;53.240;8.798;2023-10-08T10:56:26;32.40;66.10
31765;DHT22;18338;53.240;8.798;2023-10-08T10:59:00;30.20;69.20
31765;DHT22;18338;53.240;8.798;2023-10-08T11:01:28;29.20;72.30
31765;DHT22;18338;53.240;8.798;2023-10-08T11:04:11;27.70;71.20
31765;DHT22;18338;53.240;8.798;2023-10-08T11:06:44;27.70;71.50
31765;DHT22;18338;53.240;8.798;2023-10-08T11:09:12;28.50;70.40
31765;DHT22;18338;53.240;8.798;2023-10-08T11:11:43;27.70;69.40
31765;DHT22;18338;53.240;8.798;2023-10-08T11:14:15;26.30;70.60
31765;DHT22;18338;53.240;8.798;2023-10-08T11:16:47;24.10;76.80
31765;DHT22;18338;53.240;8.798;2023-10-08T11:19:14;23.50;85.20
31765;DHT22;18338;53.240;8.798;2023-10-08T11:21:52;22.60;83.50
31765;DHT22;18338;53.240;8.798;2023-10-08T11:24:33;21.80;87.50
31765;DHT22;18338;53.240;8.798;2023-10-08T11:27:09;21.10;91.60
31765;DHT22;18338;53.240;8.798;2023-10-08T11:29:47;20.80;94.00
31765;DHT22;18338;53.240;8.798;2023-10-08T11:32:15;20.90;93.50
31765;DHT22;18338;53.240;8.798;2023-10-08T11:34:47;23.10;95.10
31765;DHT22;18338;53.240;8.798;2023-10-08T11:37:30;26.60;89.80
31765;DHT22;18338;53.240;8.798;2023-10-08T11:40:01;29.70;77.30
31765;DHT22;18338;53.240;8.798;2023-10-08T11:42:39;31.60;71.60
31765;DHT22;18338;53.240;8.798;2023-10-08T11:45:11;33.40;65.10
31765;DHT22;18338;53.240;8.798;2023-10-08T11:47:51;33.60;64.40
31765;DHT22;18338;53.240;8.798;2023-10-08T11:50:29;31.30;67.10
31765;DHT22;18338;53.240;8.798;2023-10-08T11:53:00;29.80;68.00
31765;DHT22;18338;53.240;8.798;2023-10-08T11:55:31;27.80;69.70
31765;DHT22;18338;53.240;8.798;2023-10-08T11:58:06;26.20;72.10
31765;DHT22;18338;53.240;8.798;2023-10-08T12:00:41;25.10;77.70
31765;DHT22;18338;53.240;8.798;2023-10-08T12:03:13;24.40;80.30
31765;DHT22;18338;53.240;8.798;2023-10-08T12:05:46;24.00;88.30
31765;DHT22;18338;53.240;8.798;2023-10-08T12:08:18;24.60;89.30
31765;DHT22;18338;53.240;8.798;2023-10-08T12:10:48;26.80;84.90
31765;DHT22;18338;53.240;8.798;2023-10-08T12:13:15;28.80;71.00
31765;DHT22;18338;53.240;8.798;2023-10-08T12:15:48;29.30;70.00
31765;DHT22;18338;53.240;8.798;2023-10-08T12:18:15;29.60;68.70
31765;DHT22;18338;53.240;8.798;2023-10-08T12:20:57;28.70;69.00
31765;DHT22;18338;53.240;8.798;2023-10-08T12:23:24;26.60;74.10
31765;DHT22;18338;53.240;8.798;2023-10-08T12:25:55;26.30;74.90
31765;DHT22;18338;53.240;8.798;2023-10-08T12:28:24;25.20;75.50
31765;DHT22;18338;53.240;8.798;2023-10-08T12:30:51;25.80;82.30
31765;DHT22;18338;53.240;8.798;2023-10-08T12:33:23;26.50;79.00
31765;DHT22;18338;53.240;8.798;2023-10-08T12:35:55;27.20;80.50
31765;DHT22;18338;53.240;8.798;2023-10-08T12:38:23;28.00;71.50
31765;DHT22;18338;53.240;8.798;2023-10-08T12:40:50;27.40;76.20
31765;DHT22;18338;53.240;8.798;2023-10-08T12:43:24;28.20;77.20
31765;DHT22;18338;53.240;8.798;2023-10-08T12:45:55;30.70;68.80
31765;DHT22;18338;53.240;8.798;2023-10-08T12:48:30;30.80;61.50
31765;DHT22;18338;53.240;8.798;2023-10-08T12:50:58;29.70;65.20
31765;DHT22;18338;53.240;8.798;2023-10-08T12:53:27;28.30;67.20
31765;DHT22;18338;53.240;8.798;2023-10-08T12:56:01;26.70;69.50
31765;DHT22;18338;53.240;8.798;2023-10-08T12:58:35;25.70;74.80
31765;DHT22;18338;53.240;8.798;2023-10-08T13:01:08;25.00;79.90
31765;DHT22;18338;53.240;8.798;2023-10-08T13:03:37;24.60;75.90
31765;DHT22;18338;53.240;8.798;2023-10-08T13:06:18;23.60;76.90
31765;DHT22;18338;53.240;8.798;2023-10-08T13:08:49;23.20;82.00
31765;DHT22;18338;53.240;8.798;2023-10-08T13:11:20;22.90;84.70
31765;DHT22;18338;53.240;8.798;2023-10-08T13:13:53;22.60;84.90
31765;DHT22;18338;53.240;8.798;2023-10-08T13:16:24;22.00;86.40
31765;DHT22;18338;53.240;8.798;2023-10-08T13:18:52;22.00;90.30
31765;DHT22;18338;53.240;8.798;2023-10-08T13:21:19;22.60;91.70
31765;DHT22;18338;53.240;8.798;2023-10-08T13:23:46;22.90;85.30
31765;DHT22;18338;53.240;8.798;2023-10-08T13:26:13;22.70;84.80
31765;DHT22;18338;53.240;8.798;2023-10-08T13:28:44;22.30;83.90
31765;DHT22;18338;53.240;8.798;2023-10-08T13:31:12;22.80;84.70
31765;DHT22;18338;53.240;8.798;2023-10-08T13:33:40;23.70;84.00
31765;DHT22;18338;53.240;8.798;2023-10-08T13:36:10;24.00;83.50
31765;DHT22;18338;53.240;8.798;2023-10-08T13:38:45;23.60;82.30
31765;DHT22;18338;53.240;8.798;2023-10-08T13:41:13;22.60;85.10
31765;DHT22;18338;53.240;8.798;2023-10-08T13:43:46;22.50;88.00
31765;DHT22;18338;53.240;8.798;2023-10-08T13:46:18;22.80;91.20
31765;DHT22;18338;53.240;8.798;2023-10-08T13:48:46;25.00;84.60
31765;DHT22;18338;53.240;8.798;2023-10-08T13:51:20;25.40;83.30
31765;DHT22;18338;53.240;8.798;2023-10-08T13:53:52;25.20;82.60
31765;DHT22;18338;53.240;8.798;2023-10-08T13:56:21;24.90;79.80
31765;DHT22;18338;53.240;8.798;2023-10-08T13:58:54;24.70;80.30
31765;DHT22;18338;53.240;8.798;2023-10-08T14:01:44;24.10;79.10
31765;DHT22;18338;53.240;8.798;2023-10-08T14:04:18;24.00;87.80
31765;DHT22;18338;53.240;8.798;2023-10-08T14:06:58;23.70;90.80
31765;DHT22;18338;53.240;8.798;2023-10-08T14:09:25;23.20;87.60
31765;DHT22;18338;53.240;8.798;2023-10-08T14:11:59;22.70;90.40
31765;DHT22;18338;53.240;8.798;2023-10-08T14:14:27;22.20;92.40
31765;DHT22;18338;53.240;8.798;2023-10-08T14:16:58;21.60;92.50
31765;DHT22;18338;53.240;8.798;2023-10-08T14:19:42;21.00;92.20
31765;DHT22;18338;53.240;8.798;2023-10-08T14:22:19;20.40;95.20
31765;DHT22;18338;53.240;8.798;2023-10-08T14:24:49;19.80;97.40
31765;DHT22;18338;53.240;8.798;2023-10-08T14:27:28;19.60;99.50
31765;DHT22;18338;53.240;8.798;2023-10-08T14:30:00;19.80;99.90
31765;DHT22;18338;53.240;8.798;2023-10-08T14:32:32;20.10;99.80
31765;DHT22;18338;53.240;8.798;2023-10-08T14:35:00;20.20;99.90
31765;DHT22;18338;53.240;8.798;2023-10-08T14:37:45;20.10;99.90
31765;DHT22;18338;53.240;8.798;2023-10-08T14:40:31;20.10;99.90
31765;DHT22;18338;53.240;8.798;2023-10-08T14:43:16;20.60;99.90
31765;DHT22;18338;53.240;8.798;2023-10-08T14:45:47;21.10;97.60
31765;DHT22;18338;53.240;8.798;2023-10-08T14:48:14;21.50;97.10
31765;DHT22;18338;53.240;8.798;2023-10-08T14:50:41;21.50;95.50
31765;DHT22;18338;53.240;8.798;2023-10-08T14:53:09;21.40;95.80
31765;DHT22;18338;53.240;8.798;2023-10-08T14:55:36;21.40;95.00
31765;DHT22;18338;53.240;8.798;2023-10-08T14:58:08;21.30;94.00
31765;DHT22;18338;53.240;8.798;2023-10-08T15:00:37;20.90;94.00
31765;DHT22;18338;53.240;8.798;2023-10-08T15:03:06;20.30;95.40
31765;DHT22;18338;53.240;8.798;2023-10-08T15:05:33;19.80;96.20
31765;DHT22;18338;53.240;8.798;2023-10-08T15:08:04;19.60;97.20
31765;DHT22;18338;53.240;8.798;2023-10-08T15:10:37;19.30;99.70
31765;DHT22;18338;53.240;8.798;2023-10-08T15:13:04;19.10;99.90
31765;DHT22;18338;53.240;8.798;2023-10-08T15:15:31;19.00;99.90
31765;DHT22;18338;53.240;8.798;2023-10-08T15:18:01;18.80;99.90
31765;DHT22;18338;53.240;8.798;2023-10-08T15:20:29;18.60;99.90
31765;DHT22;18338;53.240;8.798;2023-10-08T15:22:59;18.40;99.90
31765;DHT22;18338;53.240;8.798;2023-10-08T15:25:26;18.10;99.90
31765;DHT22;18338;53.240;8.798;2023-10-08T15:27:53;17.90;99.90
31765;DHT22;18338;53.240;8.798;2023-10-08T15:30:20;17.80;99.90
31765;DHT22;18338;53.240;8.798;2023-10-08T15:32:48;17.60;99.90
31765;DHT22;18338;53.240;8.798;2023-10-08T15:35:18;17.40;99.90
31765;DHT22;18338;53.240;8.798;2023-10-08T15:37:51;17.30;99.90
31765;DHT22;18338;53.240;8.798;2023-10-08T15:40:18;17.10;99.90
31765;DHT22;18338;53.240;8.798;2023-10-08T15:42:53;16.90;99.90
31765;DHT22;18338;53.240;8.798;2023-10-08T15:45:22;16.80;99.90
31765;DHT22;18338;53.240;8.798;2023-10-08T15:47:49;16.90;99.90
31765;DHT22;18338;53.240;8.798;2023-10-08T15:50:18;16.90;99.90
31765;DHT22;18338;53.240;8.798;2023-10-08T15:52:48;16.80;99.90
31765;DHT22;18338;53.240;8.798;2023-10-08T15:55:16;16.60;99.90
31765;DHT22;18338;53.240;8.798;2023-10-08T15:57:44;16.40;99.90
31765;DHT22;18338;53.240;8.798;2023-10-08T16:00:11;16.20;99.90
31765;DHT22;18338;53.240;8.798;2023-10-08T16:02:38;16.00;99.90
31765;DHT22;18338;53.240;8.798;2023-10-08T16:05:06;15.80;99.90